Time;durP1;ratioP1;P1;durP2;ratioP2;P2;SDS_P1;SDS_P2;PMS_P1;PMS_P2;Temp;Humidity;BMP_temperature;BMP_pressure;BME280_temperature;BME280_humidity;BME280_pressure;Samples;Min_cycle;Max_cycle;Signal;HPM_P1;HPM_P2
2022/02/28 00:01:07;;;;;;;0.30;0.30;;;1.40;96.50;;;;;;4997498;28;20181;-77
2022/02/28 00:03:33;;;;;;;3.27;0.53;;;1.40;96.40;;;;;;5003477;28;20177;-77
2022/02/28 00:05:59;;;;;;;0.60;0.30;;;1.40;96.10;;;;;;4996235;28;20212;-77
2022/02/28 00:08:25;;;;;;;0.30;0.30;;;1.40;95.80;;;;;;4996812;28;20181;-77
2022/02/28 00:10:51;;;;;;;0.73;0.73;;;1.40;95.70;;;;;;4994768;28;20174;-77
2022/02/28 00:13:17;;;;;;;0.50;0.50;;;1.40;95.50;;;;;;4995329;28;20245;-78
2022/02/28 00:15:42;;;;;;;0.40;0.40;;;1.40;95.60;;;;;;4996953;28;20189;-79
2022/02/28 00:18:08;;;;;;;0.70;0.47;;;1.40;95.80;;;;;;5001676;28;20189;-79
2022/02/28 00:20:34;;;;;;;0.40;0.40;;;1.40;95.40;;;;;;4997152;28;20659;-78
2022/02/28 00:23:00;;;;;;;0.33;0.33;;;1.30;95.00;;;;;;4997982;28;20678;-78
2022/02/28 00:25:26;;;;;;;0.40;0.40;;;1.30;94.90;;;;;;4999327;28;20186;-78
2022/02/28 00:27:53;;;;;;;0.70;0.70;;;1.30;94.90;;;;;;4997240;28;20720;-77
2022/02/28 00:30:19;;;;;;;0.60;0.60;;;1.30;95.10;;;;;;5001805;28;20185;-78
2022/02/28 00:32:45;;;;;;;0.83;0.63;;;1.30;95.30;;;;;;4995643;28;20272;-78
2022/02/28 00:35:11;;;;;;;0.70;0.70;;;1.30;95.30;;;;;;4998615;28;20785;-78
2022/02/28 00:37:37;;;;;;;1.07;0.67;;;1.40;95.20;;;;;;5000469;28;20185;-78
2022/02/28 00:40:05;;;;;;;0.53;0.53;;;1.40;94.90;;;;;;4996148;28;20185;-78
2022/02/28 00:42:31;;;;;;;0.40;0.40;;;1.40;94.70;;;;;;4996811;28;20187;-78
2022/02/28 00:44:56;;;;;;;0.57;0.57;;;1.40;94.90;;;;;;5000093;28;20182;-78
2022/02/28 00:47:22;;;;;;;0.60;0.60;;;1.50;95.20;;;;;;4997777;28;20958;-78
2022/02/28 00:49:48;;;;;;;0.50;0.50;;;1.50;95.20;;;;;;4998709;28;20220;-78
2022/02/28 00:52:14;;;;;;;0.70;0.53;;;1.50;95.20;;;;;;5012030;28;20181;-78
2022/02/28 00:54:40;;;;;;;2.30;0.50;;;1.60;95.20;;;;;;4997265;28;20196;-78
2022/02/28 00:57:06;;;;;;;0.30;0.30;;;1.50;94.50;;;;;;4994662;28;20922;-78
2022/02/28 00:59:31;;;;;;;0.40;0.40;;;1.50;94.10;;;;;;4995478;28;20821;-78
2022/02/28 01:01:57;;;;;;;0.40;0.40;;;1.50;94.10;;;;;;4998399;28;20186;-78
2022/02/28 01:04:23;;;;;;;0.30;0.30;;;1.50;94.10;;;;;;4996117;28;20192;-78
2022/02/28 01:06:49;;;;;;;0.30;0.30;;;1.50;93.90;;;;;;4993122;28;20239;-78
2022/02/28 01:09:14;;;;;;;0.40;0.40;;;1.40;93.90;;;;;;4993390;28;20578;-78
2022/02/28 01:11:41;;;;;;;0.40;0.40;;;1.40;93.90;;;;;;4998871;28;20243;-78
2022/02/28 01:14:08;;;;;;;0.60;0.60;;;1.30;93.90;;;;;;4996419;28;20200;-78
2022/02/28 01:16:34;;;;;;;0.50;0.50;;;1.30;93.90;;;;;;4998675;28;20189;-78
2022/02/28 01:19:00;;;;;;;0.23;0.23;;;1.30;94.00;;;;;;4997229;28;20181;-78
2022/02/28 01:21:27;;;;;;;0.40;0.40;;;1.30;94.10;;;;;;4995919;28;20205;-78
2022/02/28 01:23:52;;;;;;;0.30;0.30;;;1.20;94.10;;;;;;4993629;28;20213;-78
2022/02/28 01:26:18;;;;;;;0.30;0.30;;;1.20;94.10;;;;;;4998089;28;20211;-78
2022/02/28 01:28:44;;;;;;;0.33;0.33;;;1.20;93.90;;;;;;4994914;28;20262;-78
2022/02/28 01:31:10;;;;;;;0.30;0.30;;;1.10;93.90;;;;;;4996175;28;20189;-78
2022/02/28 01:33:36;;;;;;;0.20;0.20;;;1.10;94.00;;;;;;4995487;28;20263;-78
2022/02/28 01:36:02;;;;;;;0.30;0.30;;;1.10;94.20;;;;;;4996123;28;20201;-78
2022/02/28 01:38:28;;;;;;;0.37;0.37;;;1.10;94.20;;;;;;4996163;28;20189;-78
2022/02/28 01:40:54;;;;;;;0.23;0.23;;;1.00;94.20;;;;;;4993198;28;20694;-78
2022/02/28 01:43:20;;;;;;;0.30;0.30;;;1.00;94.10;;;;;;4996397;28;20190;-78
2022/02/28 01:45:46;;;;;;;0.40;0.40;;;0.90;94.20;;;;;;4959811;28;1198711;-78
2022/02/28 01:48:12;;;;;;;0.20;0.20;;;0.90;94.30;;;;;;4996257;28;20234;-77
2022/02/28 01:50:37;;;;;;;0.20;0.20;;;0.90;94.30;;;;;;4998574;28;21011;-78
2022/02/28 01:53:04;;;;;;;0.30;0.30;;;0.90;94.10;;;;;;4995220;28;20181;-78
2022/02/28 01:55:30;;;;;;;0.53;0.53;;;0.90;94.20;;;;;;4999685;28;20251;-78
2022/02/28 01:57:56;;;;;;;0.20;0.20;;;0.90;94.10;;;;;;5000623;28;20910;-79
2022/02/28 02:00:27;;;;;;;0.50;0.47;;;0.90;94.30;;;;;;4999501;28;20393;-78
2022/02/28 02:02:53;;;;;;;0.30;0.30;;;0.80;94.30;;;;;;4995704;28;20626;-78
2022/02/28 02:05:19;;;;;;;0.27;0.27;;;0.80;94.40;;;;;;4998808;28;20217;-78
2022/02/28 02:07:47;;;;;;;0.30;0.30;;;0.80;94.40;;;;;;4994128;28;20287;-78
2022/02/28 02:10:14;;;;;;;0.30;0.30;;;0.80;94.40;;;;;;4996856;28;20303;-78
2022/02/28 02:12:40;;;;;;;0.70;0.30;;;0.80;94.50;;;;;;4998348;28;20195;-78
2022/02/28 02:15:11;;;;;;;0.20;0.20;;;0.80;94.50;;;;;;4996681;28;20189;-78
2022/02/28 02:17:38;;;;;;;0.70;0.50;;;0.80;94.40;;;;;;4994448;28;20189;-77
2022/02/28 02:20:07;;;;;;;0.50;0.50;;;0.80;94.40;;;;;;4996125;28;20177;-77
2022/02/28 02:22:33;;;;;;;0.43;0.43;;;0.80;94.40;;;;;;4999701;28;20657;-78
2022/02/28 02:24:59;;;;;;;0.20;0.20;;;0.80;94.30;;;;;;4996257;28;20188;-76
2022/02/28 02:27:25;;;;;;;0.53;0.33;;;0.80;94.00;;;;;;4994779;28;20863;-78
2022/02/28 02:29:50;;;;;;;0.40;0.40;;;0.80;93.90;;;;;;4994335;28;20186;-78
2022/02/28 02:32:18;;;;;;;0.40;0.40;;;0.80;93.70;;;;;;4993067;28;20881;-78
2022/02/28 02:34:45;;;;;;;0.37;0.37;;;0.80;93.50;;;;;;4997484;28;20185;-78
2022/02/28 02:37:11;;;;;;;0.30;0.30;;;0.80;93.40;;;;;;4995631;28;20177;-78
2022/02/28 02:39:41;;;;;;;0.40;0.40;;;0.80;93.10;;;;;;4993631;28;20181;-78
2022/02/28 02:42:07;;;;;;;0.30;0.30;;;0.80;93.00;;;;;;5001742;28;20584;-78
2022/02/28 02:44:34;;;;;;;0.40;0.40;;;0.90;93.00;;;;;;4997586;28;20181;-78
2022/02/28 02:47:00;;;;;;;0.40;0.40;;;0.90;93.30;;;;;;4993826;28;20221;-79
2022/02/28 02:49:28;;;;;;;0.37;0.20;;;0.90;93.20;;;;;;4998084;28;20292;-79
2022/02/28 02:51:53;;;;;;;0.30;0.30;;;0.90;93.00;;;;;;4996535;28;20181;-78
2022/02/28 02:54:19;;;;;;;0.20;0.20;;;0.90;92.90;;;;;;5010629;28;20614;-79
2022/02/28 02:56:45;;;;;;;0.30;0.30;;;0.90;93.00;;;;;;4987218;28;20189;-79
2022/02/28 02:59:11;;;;;;;0.30;0.30;;;1.00;93.00;;;;;;4995619;28;20280;-79
2022/02/28 03:01:37;;;;;;;0.30;0.30;;;1.00;92.90;;;;;;4995762;28;20185;-77
2022/02/28 03:04:03;;;;;;;0.20;0.20;;;1.00;92.90;;;;;;4994466;28;20208;-77
2022/02/28 03:06:28;;;;;;;0.30;0.30;;;1.00;92.70;;;;;;4998030;28;20694;-77
2022/02/28 03:08:54;;;;;;;0.10;0.10;;;1.00;92.50;;;;;;4998778;28;20187;-77
2022/02/28 03:11:20;;;;;;;0.20;0.20;;;1.00;92.30;;;;;;4994189;28;20188;-77
2022/02/28 03:13:46;;;;;;;0.23;0.23;;;0.90;92.20;;;;;;4994648;28;20199;-77
2022/02/28 03:16:12;;;;;;;0.20;0.20;;;0.90;92.20;;;;;;4994781;28;20185;-76
2022/02/28 03:18:38;;;;;;;0.27;0.27;;;0.90;92.40;;;;;;4991041;28;20173;-76
2022/02/28 03:21:03;;;;;;;0.00;0.00;;;0.90;92.30;;;;;;4994812;28;20799;-76
2022/02/28 03:23:31;;;;;;;0.10;0.10;;;0.90;92.00;;;;;;4997012;28;20185;-77
2022/02/28 03:25:57;;;;;;;0.27;0.27;;;0.90;92.00;;;;;;4993745;28;20212;-77
2022/02/28 03:28:22;;;;;;;0.10;0.10;;;0.90;92.00;;;;;;4998854;28;20182;-76
2022/02/28 03:30:48;;;;;;;0.30;0.30;;;0.90;92.00;;;;;;4996634;28;20663;-77
2022/02/28 03:33:14;;;;;;;0.30;0.20;;;0.90;92.00;;;;;;4991367;28;20220;-77
2022/02/28 03:35:39;;;;;;;0.53;0.17;;;0.90;92.10;;;;;;4988911;28;20578;-77
2022/02/28 03:38:05;;;;;;;0.20;0.20;;;0.90;92.10;;;;;;4991388;28;20177;-78
2022/02/28 03:40:33;;;;;;;0.10;0.10;;;0.90;92.10;;;;;;4998243;28;20181;-78
2022/02/28 03:43:01;;;;;;;0.07;0.07;;;0.90;92.20;;;;;;4992702;28;20657;-78
2022/02/28 03:45:27;;;;;;;0.30;0.30;;;0.90;92.00;;;;;;4992667;28;20193;-77
2022/02/28 03:47:53;;;;;;;0.20;0.20;;;0.90;92.10;;;;;;4994336;28;20280;-77
2022/02/28 03:50:20;;;;;;;0.30;0.30;;;1.00;92.10;;;;;;4992825;28;20296;-78
2022/02/28 03:52:45;;;;;;;0.20;0.20;;;0.90;92.20;;;;;;4993134;28;20211;-77
2022/02/28 03:55:11;;;;;;;0.20;0.20;;;0.90;91.90;;;;;;4997110;28;20235;-77
2022/02/28 03:57:37;;;;;;;0.20;0.20;;;0.90;91.80;;;;;;4992131;28;20629;-77
2022/02/28 04:00:07;;;;;;;0.30;0.30;;;1.00;91.80;;;;;;4992814;28;20181;-76
2022/02/28 04:02:32;;;;;;;0.20;0.20;;;1.00;91.80;;;;;;4993646;28;20189;-76
2022/02/28 04:04:58;;;;;;;0.70;0.40;;;1.00;91.80;;;;;;4992585;28;20189;-76
2022/02/28 04:07:24;;;;;;;0.23;0.23;;;1.00;91.70;;;;;;4992217;28;20304;-77
2022/02/28 04:09:50;;;;;;;0.50;0.50;;;1.00;91.60;;;;;;4990310;28;20651;-77
2022/02/28 04:12:15;;;;;;;0.20;0.20;;;1.10;91.80;;;;;;4993424;28;20185;-76
2022/02/28 04:14:42;;;;;;;0.60;0.30;;;1.10;91.70;;;;;;4997495;28;20185;-76
2022/02/28 04:17:08;;;;;;;0.97;0.40;;;1.10;91.50;;;;;;4990539;28;20283;-78
2022/02/28 04:19:34;;;;;;;0.20;0.20;;;1.10;91.70;;;;;;4991652;28;20189;-78
2022/02/28 04:22:00;;;;;;;0.27;0.27;;;1.10;91.50;;;;;;4992985;28;20577;-78
2022/02/28 04:24:26;;;;;;;0.37;0.37;;;1.10;91.30;;;;;;4993073;28;20260;-76
2022/02/28 04:26:52;;;;;;;0.73;0.30;;;1.20;91.40;;;;;;4994876;28;20237;-77
2022/02/28 04:29:17;;;;;;;0.10;0.10;;;1.20;91.40;;;;;;4994629;28;20188;-77
2022/02/28 04:31:43;;;;;;;0.20;0.20;;;1.20;91.40;;;;;;5000525;28;20616;-77
2022/02/28 04:34:09;;;;;;;0.10;0.10;;;1.20;91.50;;;;;;4995514;28;20200;-77
2022/02/28 04:36:35;;;;;;;0.30;0.30;;;1.20;91.50;;;;;;4996717;28;20213;-77
2022/02/28 04:39:01;;;;;;;1.37;0.37;;;1.20;91.50;;;;;;4995631;28;20244;-77
2022/02/28 04:41:27;;;;;;;0.17;0.17;;;1.20;91.30;;;;;;4997272;28;20192;-77
2022/02/28 04:43:53;;;;;;;0.20;0.20;;;1.20;91.40;;;;;;4999133;28;20188;-77
2022/02/28 04:46:19;;;;;;;0.30;0.30;;;1.20;91.00;;;;;;4998820;28;20231;-77
2022/02/28 04:48:45;;;;;;;0.33;0.10;;;1.20;91.00;;;;;;5002417;28;20193;-76
2022/02/28 04:51:10;;;;;;;0.20;0.20;;;1.20;91.30;;;;;;4997422;28;20174;-77
2022/02/28 04:53:36;;;;;;;0.20;0.20;;;1.20;91.50;;;;;;4999207;28;20193;-77
2022/02/28 04:56:02;;;;;;;0.10;0.10;;;1.20;91.50;;;;;;4999075;28;20224;-78
2022/02/28 04:58:28;;;;;;;0.20;0.20;;;1.20;91.50;;;;;;4995990;28;20181;-77
2022/02/28 05:00:54;;;;;;;2.43;0.27;;;1.20;91.70;;;;;;4999009;28;20240;-77
2022/02/28 05:03:20;;;;;;;0.47;0.47;;;1.20;91.50;;;;;;5001157;28;20715;-76
2022/02/28 05:05:46;;;;;;;0.23;0.23;;;1.20;91.50;;;;;;4997071;28;20217;-76
2022/02/28 05:08:11;;;;;;;0.27;0.27;;;1.20;91.50;;;;;;5003186;28;20264;-77
2022/02/28 05:10:37;;;;;;;0.17;0.17;;;1.20;91.30;;;;;;4996854;28;20324;-79
2022/02/28 05:13:04;;;;;;;0.60;0.40;;;1.20;91.50;;;;;;4998076;28;20185;-78
2022/02/28 05:15:30;;;;;;;0.30;0.30;;;1.20;91.50;;;;;;4997484;28;20174;-78
2022/02/28 05:17:56;;;;;;;0.20;0.20;;;1.20;91.40;;;;;;4999431;28;20702;-77
2022/02/28 05:20:21;;;;;;;0.97;0.50;;;1.20;91.20;;;;;;5010682;28;20712;-78
2022/02/28 05:22:47;;;;;;;1.13;0.30;;;1.20;91.20;;;;;;4997479;28;20302;-77
2022/02/28 05:25:14;;;;;;;0.33;0.33;;;1.30;90.90;;;;;;5002967;28;20200;-77
2022/02/28 05:27:42;;;;;;;0.30;0.30;;;1.30;91.20;;;;;;4996922;28;20209;-76
2022/02/28 05:30:09;;;;;;;0.10;0.10;;;1.30;91.20;;;;;;4999548;28;20182;-77
2022/02/28 05:32:36;;;;;;;0.40;0.40;;;1.30;91.30;;;;;;4998984;28;20195;-76
2022/02/28 05:35:01;;;;;;;0.30;0.30;;;1.30;91.40;;;;;;4993873;28;20263;-77
2022/02/28 05:37:27;;;;;;;0.13;0.13;;;1.20;91.30;;;;;;4998483;28;20273;-76
2022/02/28 05:39:53;;;;;;;0.43;0.23;;;1.20;91.20;;;;;;4993179;28;20276;-76
2022/02/28 05:42:19;;;;;;;0.60;0.40;;;1.20;91.50;;;;;;4998447;28;20271;-76
2022/02/28 05:44:44;;;;;;;0.40;0.40;;;1.20;91.50;;;;;;4997109;28;20185;-74
2022/02/28 05:47:10;;;;;;;0.30;0.30;;;1.30;91.40;;;;;;4998765;28;20217;-85
2022/02/28 05:49:36;;;;;;;0.30;0.20;;;1.20;91.40;;;;;;4996533;28;20192;-84
2022/02/28 05:52:02;;;;;;;0.30;0.20;;;1.20;91.50;;;;;;5000334;28;20181;-85
2022/02/28 05:54:27;;;;;;;0.30;0.20;;;1.30;91.80;;;;;;5004595;28;20597;-84
2022/02/28 05:56:53;;;;;;;0.30;0.30;;;1.30;92.10;;;;;;5001003;28;20246;-86
2022/02/28 05:59:19;;;;;;;0.40;0.40;;;1.40;92.00;;;;;;4998491;28;20188;-84
2022/02/28 06:01:44;;;;;;;0.63;0.43;;;1.40;92.00;;;;;;5015733;28;20191;-76
2022/02/28 06:04:10;;;;;;;0.30;0.30;;;1.40;92.00;;;;;;4998990;28;20197;-75
2022/02/28 06:06:36;;;;;;;0.43;0.33;;;1.50;91.70;;;;;;4997422;28;20255;-78
2022/02/28 06:09:03;;;;;;;0.30;0.30;;;1.60;91.60;;;;;;4997929;28;20188;-78
2022/02/28 06:11:30;;;;;;;0.20;0.20;;;1.60;91.40;;;;;;4991662;28;20190;-76
2022/02/28 06:13:56;;;;;;;0.57;0.40;;;1.60;91.30;;;;;;4988523;28;20670;-76
2022/02/28 06:16:22;;;;;;;0.20;0.20;;;1.70;91.40;;;;;;4996943;28;20281;-77
2022/02/28 06:18:48;;;;;;;0.23;0.23;;;1.80;91.20;;;;;;4998849;28;20632;-76
2022/02/28 06:21:14;;;;;;;0.40;0.40;;;1.80;91.40;;;;;;4995701;28;20185;-76
2022/02/28 06:23:42;;;;;;;0.60;0.60;;;1.90;91.50;;;;;;4999523;28;20193;-76
2022/02/28 06:26:09;;;;;;;0.30;0.30;;;2.00;91.60;;;;;;4996999;28;20209;-75
2022/02/28 06:28:34;;;;;;;0.30;0.30;;;2.10;91.60;;;;;;4991291;28;20237;-76
2022/02/28 06:31:00;;;;;;;0.30;0.30;;;2.20;91.00;;;;;;4994630;28;20332;-77
2022/02/28 06:33:26;;;;;;;0.23;0.23;;;2.30;91.20;;;;;;5000773;28;20193;-78
2022/02/28 06:35:53;;;;;;;0.30;0.30;;;2.40;90.70;;;;;;4993707;28;20190;-78
2022/02/28 06:38:20;;;;;;;0.30;0.30;;;2.40;90.40;;;;;;4995327;28;20193;-78
2022/02/28 06:40:46;;;;;;;0.10;0.10;;;2.40;90.50;;;;;;4995229;28;20238;-76
2022/02/28 06:43:13;;;;;;;0.30;0.30;;;2.50;90.50;;;;;;4998726;28;20239;-78
2022/02/28 06:45:40;;;;;;;1.30;0.33;;;2.50;89.60;;;;;;4995808;28;20193;-77
2022/02/28 06:48:06;;;;;;;0.40;0.40;;;2.50;89.90;;;;;;4997330;28;20177;-76
2022/02/28 06:50:32;;;;;;;0.27;0.27;;;2.60;90.00;;;;;;4998144;28;20682;-75
2022/02/28 06:52:58;;;;;;;0.27;0.27;;;2.60;88.90;;;;;;4995332;28;20793;-76
2022/02/28 06:55:24;;;;;;;0.37;0.37;;;2.60;89.00;;;;;;4990111;28;20442;-75
2022/02/28 06:57:49;;;;;;;0.40;0.40;;;2.60;88.50;;;;;;4997974;28;20590;-76
2022/02/28 07:00:15;;;;;;;2.47;0.37;;;2.50;87.40;;;;;;4992909;28;20181;-76
2022/02/28 07:02:41;;;;;;;0.37;0.37;;;2.40;88.30;;;;;;4994230;28;20181;-77
2022/02/28 07:05:07;;;;;;;0.50;0.50;;;2.40;88.40;;;;;;4987906;28;20208;-77
2022/02/28 07:07:33;;;;;;;0.30;0.30;;;2.40;88.20;;;;;;4987358;28;20275;-75
2022/02/28 07:09:59;;;;;;;0.40;0.23;;;2.30;87.80;;;;;;4985796;28;20185;-75
2022/02/28 07:12:25;;;;;;;0.20;0.20;;;2.30;88.30;;;;;;4989767;28;20181;-77
2022/02/28 07:14:51;;;;;;;0.70;0.70;;;2.20;88.70;;;;;;4994697;28;21020;-76
2022/02/28 07:17:17;;;;;;;0.50;0.50;;;2.30;89.00;;;;;;4994764;28;20319;-76
2022/02/28 07:19:42;;;;;;;5.53;0.40;;;2.40;89.80;;;;;;4992817;28;20192;-76
2022/02/28 07:22:08;;;;;;;0.57;0.57;;;2.50;90.10;;;;;;4996227;28;20189;-77
2022/02/28 07:24:34;;;;;;;0.40;0.40;;;2.50;89.20;;;;;;4993846;28;20181;-76
2022/02/28 07:27:01;;;;;;;0.50;0.50;;;2.50;88.80;;;;;;4988402;28;20208;-75
2022/02/28 07:29:27;;;;;;;1.30;0.50;;;2.50;89.20;;;;;;5004798;28;20188;-76
2022/02/28 07:31:53;;;;;;;0.50;0.50;;;2.60;89.30;;;;;;4991892;28;20183;-76
2022/02/28 07:34:18;;;;;;;0.63;0.57;;;2.60;89.70;;;;;;4995430;28;20186;-76
2022/02/28 07:36:44;;;;;;;0.80;0.57;;;2.60;90.00;;;;;;4997273;28;20572;-75
2022/02/28 07:39:11;;;;;;;0.40;0.40;;;2.70;90.00;;;;;;4996816;28;20181;-75
2022/02/28 07:41:37;;;;;;;0.40;0.40;;;2.70;90.00;;;;;;4993762;28;20185;-77
2022/02/28 07:44:04;;;;;;;0.40;0.40;;;2.70;90.00;;;;;;4990920;28;20328;-76
2022/02/28 07:46:29;;;;;;;0.30;0.30;;;2.70;90.00;;;;;;4995035;28;20326;-76
2022/02/28 07:48:55;;;;;;;3.40;0.50;;;2.70;89.70;;;;;;4996431;28;20237;-75
2022/02/28 07:51:21;;;;;;;0.60;0.60;;;2.60;89.00;;;;;;4996386;28;20200;-76
2022/02/28 07:53:47;;;;;;;0.67;0.67;;;2.50;89.40;;;;;;4995881;28;20228;-76
2022/02/28 07:56:12;;;;;;;0.70;0.70;;;2.50;89.80;;;;;;4998612;28;20180;-76
2022/02/28 07:58:38;;;;;;;0.63;0.63;;;2.40;90.00;;;;;;4989091;28;20236;-76
2022/02/28 08:01:04;;;;;;;1.30;0.70;;;2.50;90.90;;;;;;4996851;28;20186;-76
2022/02/28 08:03:30;;;;;;;0.47;0.47;;;2.50;90.40;;;;;;4989817;28;20189;-76
2022/02/28 08:05:56;;;;;;;0.70;0.70;;;2.50;90.50;;;;;;4991278;28;20198;-78
2022/02/28 08:08:21;;;;;;;0.40;0.40;;;2.50;89.90;;;;;;4992362;28;20185;-77
2022/02/28 08:10:47;;;;;;;0.53;0.50;;;2.50;89.70;;;;;;4995078;28;20174;-78
2022/02/28 08:13:13;;;;;;;0.43;0.43;;;2.60;90.00;;;;;;4988699;28;20193;-76
2022/02/28 08:15:39;;;;;;;0.50;0.50;;;2.60;89.40;;;;;;4999841;28;20706;-76
2022/02/28 08:18:06;;;;;;;0.50;0.50;;;2.70;88.80;;;;;;4994273;28;20972;-77
2022/02/28 08:20:33;;;;;;;0.57;0.57;;;2.70;89.20;;;;;;5000544;28;20180;-75
2022/02/28 08:23:00;;;;;;;0.40;0.40;;;2.80;89.60;;;;;;4988858;28;20678;-75
2022/02/28 08:25:27;;;;;;;0.43;0.43;;;2.90;89.60;;;;;;4995996;28;20191;-77
2022/02/28 08:27:52;;;;;;;0.40;0.40;;;2.90;89.00;;;;;;4996494;28;20252;-76
2022/02/28 08:30:18;;;;;;;0.53;0.53;;;2.90;88.50;;;;;;4998320;28;20210;-76
2022/02/28 08:32:44;;;;;;;0.40;0.40;;;2.90;87.70;;;;;;4999482;28;20217;-77
2022/02/28 08:35:10;;;;;;;0.40;0.40;;;3.00;87.80;;;;;;4992944;28;20622;-77
2022/02/28 08:37:36;;;;;;;0.40;0.40;;;3.00;87.80;;;;;;4997286;28;20183;-77
2022/02/28 08:40:02;;;;;;;0.30;0.30;;;3.10;88.30;;;;;;4997601;28;20181;-77
2022/02/28 08:42:28;;;;;;;0.60;0.50;;;3.20;88.50;;;;;;4997529;28;20209;-77
2022/02/28 08:44:54;;;;;;;0.70;0.70;;;3.30;88.40;;;;;;4995680;28;20631;-78
2022/02/28 08:47:19;;;;;;;3.13;0.80;;;3.50;87.70;;;;;;4994832;28;20217;-77
2022/02/28 08:49:46;;;;;;;0.33;0.33;;;3.50;87.20;;;;;;4994381;28;20266;-77
2022/02/28 08:52:12;;;;;;;0.53;0.53;;;3.60;87.40;;;;;;4998157;28;20264;-77
2022/02/28 08:54:37;;;;;;;0.50;0.50;;;3.70;87.40;;;;;;4999452;28;20770;-78
2022/02/28 08:57:05;;;;;;;2.80;0.60;;;3.80;86.30;;;;;;4992635;28;20181;-78
2022/02/28 08:59:31;;;;;;;0.60;0.60;;;3.70;86.50;;;;;;4993359;28;21833;-78
2022/02/28 09:01:57;;;;;;;1.53;0.70;;;3.80;86.70;;;;;;4994442;28;20177;-77
2022/02/28 09:04:23;;;;;;;0.67;0.57;;;3.80;86.10;;;;;;4997699;28;20238;-76
2022/02/28 09:06:48;;;;;;;0.90;0.70;;;3.80;85.80;;;;;;4998464;28;20216;-77
2022/02/28 09:09:15;;;;;;;1.10;0.87;;;3.80;85.50;;;;;;4997056;28;20180;-77
2022/02/28 09:11:41;;;;;;;0.50;0.50;;;3.90;85.90;;;;;;5000027;28;20276;-76
2022/02/28 09:14:06;;;;;;;0.50;0.47;;;3.90;86.40;;;;;;4999794;28;20174;-76
2022/02/28 09:16:32;;;;;;;0.40;0.40;;;4.00;85.80;;;;;;4989497;28;20178;-76
2022/02/28 09:18:59;;;;;;;0.60;0.60;;;4.10;85.70;;;;;;4993445;28;20236;-76
2022/02/28 09:21:26;;;;;;;0.70;0.70;;;4.20;85.30;;;;;;4994198;28;20177;-76
2022/02/28 09:23:53;;;;;;;0.50;0.50;;;4.20;84.40;;;;;;5011145;28;20193;-76
2022/02/28 09:26:19;;;;;;;0.73;0.40;;;4.30;84.90;;;;;;4997965;28;20725;-76
2022/02/28 09:28:45;;;;;;;0.40;0.40;;;4.40;84.40;;;;;;4999522;28;20181;-76
2022/02/28 09:31:11;;;;;;;0.50;0.50;;;4.40;84.70;;;;;;4990937;28;20195;-76
2022/02/28 09:33:36;;;;;;;0.73;0.60;;;4.40;84.20;;;;;;4994383;28;20224;-76
2022/02/28 09:36:04;;;;;;;0.73;0.73;;;4.40;84.10;;;;;;5000428;28;20185;-76
2022/02/28 09:38:30;;;;;;;0.80;0.80;;;4.40;84.00;;;;;;5002687;28;20184;-76
2022/02/28 09:40:57;;;;;;;0.67;0.60;;;4.40;83.40;;;;;;4991835;28;20264;-77
2022/02/28 09:43:22;;;;;;;0.40;0.40;;;4.30;82.90;;;;;;4993768;28;20186;-77
2022/02/28 09:45:51;;;;;;;0.87;0.60;;;4.40;83.40;;;;;;4989469;28;20212;-76
2022/02/28 09:48:18;;;;;;;0.70;0.70;;;4.40;83.50;;;;;;4998652;28;20180;-76
2022/02/28 09:50:43;;;;;;;0.50;0.50;;;4.50;82.50;;;;;;4997998;28;20181;-75
2022/02/28 09:53:09;;;;;;;2.63;0.30;;;4.50;82.50;;;;;;4996916;28;20173;-77
2022/02/28 09:55:35;;;;;;;1.03;0.40;;;4.50;83.10;;;;;;4998089;28;20895;-76
2022/02/28 09:58:01;;;;;;;0.57;0.57;;;4.60;83.00;;;;;;4995022;28;20181;-76
2022/02/28 10:00:27;;;;;;;0.53;0.53;;;4.70;83.30;;;;;;4998469;28;20256;-76
2022/02/28 10:02:57;;;;;;;0.60;0.60;;;4.80;82.20;;;;;;4995777;28;20223;-76
2022/02/28 10:05:24;;;;;;;0.50;0.50;;;5.00;82.20;;;;;;4995232;28;20698;-76
2022/02/28 10:07:55;;;;;;;0.33;0.33;;;5.10;81.70;;;;;;4999563;28;20615;-76
2022/02/28 10:10:22;;;;;;;0.60;0.60;;;5.30;81.00;;;;;;5000505;28;20188;-76
2022/02/28 10:12:49;;;;;;;0.33;0.33;;;5.40;80.60;;;;;;4992229;28;20568;-76
2022/02/28 10:15:23;;;;;;;0.40;0.40;;;5.70;81.10;;;;;;4997063;28;20578;-76
2022/02/28 10:17:57;;;;;;;0.40;0.40;;;5.90;79.90;;;;;;4991348;28;20853;-75
2022/02/28 10:20:32;;;;;;;0.50;0.47;;;6.00;79.60;;;;;;5000498;28;20177;-75
2022/02/28 10:23:10;;;;;;;0.50;0.50;;;6.10;78.50;;;;;;4994170;28;20659;-76
2022/02/28 10:25:37;;;;;;;0.57;0.57;;;6.30;78.20;;;;;;4998538;28;20204;-76
2022/02/28 10:28:24;;;;;;;0.50;0.50;;;6.30;77.50;;;;;;4993251;28;20216;-76
2022/02/28 10:30:55;;;;;;;0.33;0.33;;;6.40;77.40;;;;;;4992499;28;20193;-76
2022/02/28 10:33:31;;;;;;;0.40;0.40;;;6.30;77.30;;;;;;4995357;28;20247;-77
2022/02/28 10:36:15;;;;;;;1.23;0.40;;;6.20;77.30;;;;;;4987273;28;20253;-77
2022/02/28 10:38:43;;;;;;;0.80;0.50;;;6.10;77.40;;;;;;4993693;28;20184;-78
2022/02/28 10:41:19;;;;;;;0.70;0.70;;;6.00;77.30;;;;;;5013671;28;20943;-77
2022/02/28 10:43:46;;;;;;;0.50;0.50;;;6.00;77.60;;;;;;4989794;28;20178;-77
2022/02/28 10:46:17;;;;;;;0.93;0.40;;;6.10;77.80;;;;;;4994629;28;20659;-76
2022/02/28 10:48:58;;;;;;;0.40;0.40;;;6.10;77.60;;;;;;4992123;28;20713;-77
2022/02/28 10:51:24;;;;;;;1.23;0.60;;;6.10;77.70;;;;;;4992023;28;20208;-76
2022/02/28 10:54:08;;;;;;;0.60;0.60;;;6.30;78.20;;;;;;4995580;28;20209;-76
2022/02/28 10:56:54;;;;;;;0.40;0.40;;;6.70;79.00;;;;;;4990063;28;20181;-76
2022/02/28 10:59:22;;;;;;;0.70;0.70;;;7.40;77.00;;;;;;4988178;28;20654;-77
2022/02/28 11:01:48;;;;;;;0.50;0.50;;;8.00;76.10;;;;;;4989853;28;20185;-77
2022/02/28 11:04:14;;;;;;;0.63;0.63;;;8.50;74.90;;;;;;4997370;28;20181;-77
2022/02/28 11:06:42;;;;;;;3.13;0.50;;;8.70;72.60;;;;;;4994968;28;20271;-76
2022/02/28 11:09:08;;;;;;;0.70;0.60;;;8.70;72.30;;;;;;4996749;28;20196;-76
2022/02/28 11:11:33;;;;;;;0.70;0.70;;;8.80;72.40;;;;;;4994492;28;20757;-76
2022/02/28 11:14:00;;;;;;;0.90;0.63;;;8.70;70.90;;;;;;4988911;28;20660;-76
2022/02/28 11:16:28;;;;;;;0.70;0.70;;;8.60;70.90;;;;;;4994977;28;20203;-76
2022/02/28 11:18:54;;;;;;;0.80;0.80;;;8.50;70.20;;;;;;4985723;28;20194;-77
2022/02/28 11:21:20;;;;;;;0.50;0.50;;;8.40;70.00;;;;;;4987864;28;20181;-75
2022/02/28 11:23:47;;;;;;;0.50;0.50;;;8.30;70.20;;;;;;4998170;28;20693;-76
2022/02/28 11:26:15;;;;;;;1.63;1.00;;;8.10;70.50;;;;;;4989335;28;20222;-77
2022/02/28 11:28:41;;;;;;;1.30;0.60;;;8.00;71.10;;;;;;4987575;28;20624;-76
2022/02/28 11:31:11;;;;;;;0.80;0.80;;;7.80;71.60;;;;;;4990437;28;20185;-77
2022/02/28 11:33:39;;;;;;;1.17;1.00;;;7.60;72.10;;;;;;4988764;28;20189;-77
2022/02/28 11:36:05;;;;;;;0.70;0.70;;;7.40;72.10;;;;;;4992262;28;20189;-77
2022/02/28 11:38:31;;;;;;;0.60;0.60;;;7.30;72.20;;;;;;4988182;28;20185;-76
2022/02/28 11:41:05;;;;;;;0.67;0.67;;;7.30;72.50;;;;;;4994861;28;20188;-77
2022/02/28 11:43:33;;;;;;;0.50;0.50;;;7.30;72.50;;;;;;4989553;28;20184;-77
2022/02/28 11:46:05;;;;;;;1.03;0.63;;;7.10;72.80;;;;;;4990067;28;21621;-77
2022/02/28 11:48:34;;;;;;;0.50;0.50;;;6.90;72.20;;;;;;4989100;28;20185;-77
2022/02/28 11:51:06;;;;;;;0.50;0.50;;;6.70;72.40;;;;;;4993968;28;20244;-76
2022/02/28 11:53:49;;;;;;;0.80;0.80;;;6.60;73.20;;;;;;4990000;28;20177;-77
2022/02/28 11:56:18;;;;;;;0.47;0.47;;;6.50;73.40;;;;;;4997455;28;20675;-78
2022/02/28 11:58:54;;;;;;;0.73;0.50;;;6.30;73.60;;;;;;4994419;28;20220;-76
2022/02/28 12:01:34;;;;;;;1.33;0.50;;;6.20;73.60;;;;;;4987796;28;20177;-79
2022/02/28 12:04:16;;;;;;;0.50;0.50;;;6.10;73.40;;;;;;4993614;28;20187;-76
2022/02/28 12:07:02;;;;;;;0.67;0.67;;;5.90;74.80;;;;;;4998314;28;20276;-75
2022/02/28 12:09:37;;;;;;;0.60;0.60;;;5.80;75.80;;;;;;4992033;28;20221;-76
2022/02/28 12:12:12;;;;;;;0.57;0.57;;;5.70;75.60;;;;;;4997262;28;20222;-75
2022/02/28 12:15:03;;;;;;;1.03;0.43;;;5.60;75.70;;;;;;5000419;28;20180;-76
2022/02/28 12:17:40;;;;;;;1.67;0.60;;;5.40;75.90;;;;;;4992916;28;20178;-76
2022/02/28 12:20:18;;;;;;;1.20;0.50;;;5.30;76.10;;;;;;5005497;28;20233;-76
2022/02/28 12:22:58;;;;;;;0.40;0.40;;;5.10;76.80;;;;;;5005255;28;20189;-75
2022/02/28 12:25:31;;;;;;;0.90;0.90;;;5.00;76.20;;;;;;4996841;28;20173;-76
2022/02/28 12:27:57;;;;;;;0.70;0.60;;;5.00;76.60;;;;;;4992993;28;20229;-77
2022/02/28 12:30:43;;;;;;;0.93;0.63;;;4.80;76.50;;;;;;4994449;28;20644;-78
2022/02/28 12:33:11;;;;;;;0.83;0.47;;;4.70;77.00;;;;;;4994874;28;20181;-78
2022/02/28 12:35:51;;;;;;;0.70;0.70;;;4.60;77.70;;;;;;4995054;28;20598;-77
2022/02/28 12:38:17;;;;;;;0.37;0.37;;;4.60;77.30;;;;;;4993281;28;20185;-77
2022/02/28 12:40:55;;;;;;;1.70;0.60;;;4.50;77.60;;;;;;4993434;28;20199;-77
2022/02/28 12:43:23;;;;;;;0.40;0.40;;;4.50;78.30;;;;;;4990464;28;20606;-77
2022/02/28 12:45:55;;;;;;;0.40;0.40;;;4.50;78.20;;;;;;4993048;28;20888;-76
2022/02/28 12:48:23;;;;;;;1.33;0.50;;;4.40;78.30;;;;;;4996285;28;20243;-77
2022/02/28 12:50:51;;;;;;;0.67;0.67;;;4.40;78.10;;;;;;4995170;28;20871;-77
2022/02/28 12:53:18;;;;;;;1.17;0.60;;;4.30;77.40;;;;;;4996389;28;20177;-77
2022/02/28 12:55:52;;;;;;;0.80;0.80;;;4.30;77.50;;;;;;4995506;28;20181;-76
2022/02/28 12:58:21;;;;;;;1.03;0.40;;;4.20;77.40;;;;;;4994198;28;20270;-77